Time;durP1;ratioP1;P1;durP2;ratioP2;P2;SDS_P1;SDS_P2;PMS_P1;PMS_P2;Temp;Humidity;BMP_temperature;BMP_pressure;BME280_temperature;BME280_humidity;BME280_pressure;Samples;Min_cycle;Max_cycle;Signal;HPM_P1;HPM_P2
2022/11/27 00:01:11;;;;;;;7.50;2.65;;;9.20;57.60;;;;;;5022820;28;20141;-47
2022/11/27 00:03:40;;;;;;;7.80;2.40;;;9.20;57.60;;;;;;5044098;28;20053;-45
2022/11/27 00:06:11;;;;;;;9.82;2.95;;;9.20;57.60;;;;;;5040903;28;20052;-44
2022/11/27 00:08:38;;;;;;;8.40;2.35;;;9.20;57.70;;;;;;5031201;28;20057;-48
2022/11/27 00:11:07;;;;;;;7.90;2.47;;;9.20;57.70;;;;;;5021923;28;20060;-46
2022/11/27 00:13:34;;;;;;;8.68;2.50;;;9.20;57.70;;;;;;5040598;28;20056;-44
2022/11/27 00:16:01;;;;;;;5.45;2.20;;;9.20;57.70;;;;;;5025517;28;20054;-42
2022/11/27 00:18:29;;;;;;;11.50;2.90;;;9.20;57.70;;;;;;5040885;28;20052;-43
2022/11/27 00:21:02;;;;;;;6.85;2.75;;;9.20;57.70;;;;;;5020533;28;20049;-47
2022/11/27 00:23:30;;;;;;;6.60;2.17;;;9.10;57.60;;;;;;5027077;28;20089;-46
2022/11/27 00:25:57;;;;;;;8.77;2.38;;;9.20;58.10;;;;;;5023326;28;21015;-43
2022/11/27 00:28:24;;;;;;;8.02;2.33;;;9.10;57.60;;;;;;5031020;28;20056;-48
2022/11/27 00:30:51;;;;;;;13.48;2.70;;;9.10;57.60;;;;;;5024357;28;20418;-46
2022/11/27 00:33:19;;;;;;;9.18;2.10;;;9.10;57.60;;;;;;5023135;28;20053;-48
2022/11/27 00:35:46;;;;;;;7.97;2.63;;;9.10;57.60;;;;;;5041787;28;20501;-44
2022/11/27 00:38:14;;;;;;;6.88;2.75;;;9.10;57.60;;;;;;5039539;28;20056;-44
2022/11/27 00:40:42;;;;;;;7.97;2.20;;;9.10;57.60;;;;;;5027866;28;20058;-44
2022/11/27 00:43:09;;;;;;;7.25;2.50;;;9.20;57.60;;;;;;5024193;28;20685;-43
2022/11/27 00:45:36;;;;;;;8.45;2.83;;;9.20;57.70;;;;;;5026196;28;20409;-45
2022/11/27 00:48:04;;;;;;;7.80;3.42;;;9.20;57.70;;;;;;5026760;28;20049;-47
2022/11/27 00:50:31;;;;;;;9.63;2.80;;;9.10;57.60;;;;;;5019508;28;20576;-47
2022/11/27 00:52:59;;;;;;;10.75;2.60;;;9.20;57.60;;;;;;5036731;28;20045;-48
2022/11/27 00:55:27;;;;;;;9.65;3.42;;;9.20;57.60;;;;;;5037943;28;20060;-48
2022/11/27 00:57:54;;;;;;;13.57;3.80;;;9.20;57.60;;;;;;5022761;28;20057;-41
2022/11/27 01:00:22;;;;;;;8.88;3.40;;;9.20;57.70;;;;;;5023954;28;22565;-45
2022/11/27 01:02:49;;;;;;;9.82;3.28;;;9.20;57.60;;;;;;5031801;28;20052;-44
2022/11/27 01:05:17;;;;;;;7.50;2.80;;;9.20;57.60;;;;;;5036672;28;20056;-49
2022/11/27 01:07:44;;;;;;;13.07;3.97;;;9.20;57.60;;;;;;5041744;28;20053;-48
2022/11/27 01:10:12;;;;;;;10.18;3.15;;;9.20;57.60;;;;;;5035667;28;20053;-48
2022/11/27 01:12:41;;;;;;;7.82;3.50;;;9.20;57.60;;;;;;5032455;28;20059;-45
2022/11/27 01:15:09;;;;;;;7.32;3.25;;;9.20;57.60;;;;;;5041016;28;20053;-46
2022/11/27 01:17:36;;;;;;;11.38;4.25;;;9.20;57.70;;;;;;5032671;28;20052;-47
2022/11/27 01:20:04;;;;;;;9.18;4.25;;;9.20;57.70;;;;;;5027171;28;20409;-46
2022/11/27 01:22:33;;;;;;;14.60;4.78;;;9.20;57.70;;;;;;5022165;28;20060;-43
2022/11/27 01:25:00;;;;;;;10.00;4.85;;;9.20;57.70;;;;;;5024771;28;20068;-45
2022/11/27 01:27:27;;;;;;;12.07;5.00;;;9.20;57.70;;;;;;5040055;28;20060;-46
2022/11/27 01:29:56;;;;;;;14.60;6.15;;;9.20;57.70;;;;;;5028608;28;20064;-44
2022/11/27 01:32:23;;;;;;;17.40;6.30;;;9.20;57.60;;;;;;5032299;28;20485;-48
2022/11/27 01:34:50;;;;;;;16.52;7.13;;;9.30;57.70;;;;;;5029426;28;20056;-43
2022/11/27 01:37:18;;;;;;;11.63;6.07;;;9.20;57.60;;;;;;5041465;28;20494;-47
2022/11/27 01:39:45;;;;;;;17.25;7.50;;;9.30;57.60;;;;;;5042513;28;20064;-50
2022/11/27 01:42:12;;;;;;;22.92;7.35;;;9.30;57.60;;;;;;5025958;28;20398;-46
2022/11/27 01:44:53;;;;;;;16.65;7.47;;;9.30;57.60;;;;;;5041888;28;20067;-51
2022/11/27 01:47:37;;;;;;;19.02;7.93;;;9.30;57.60;;;;;;5019752;28;20076;-44
2022/11/27 01:50:14;;;;;;;22.02;8.10;;;9.30;57.60;;;;;;5035228;28;20053;-48
2022/11/27 01:52:47;;;;;;;19.27;8.40;;;9.30;57.50;;;;;;5029217;28;20067;-42
2022/11/27 01:55:19;;;;;;;22.92;10.40;;;9.30;57.50;;;;;;5026244;28;20054;-43
2022/11/27 01:57:49;;;;;;;22.75;9.80;;;9.30;57.40;;;;;;5028269;28;20049;-46
2022/11/27 02:00:18;;;;;;;18.17;9.95;;;9.30;57.40;;;;;;5026040;28;20053;-52
2022/11/27 02:02:47;;;;;;;18.92;9.00;;;9.30;57.40;;;;;;5031583;28;20477;-55
2022/11/27 02:05:18;;;;;;;16.52;8.77;;;9.30;57.40;;;;;;5036338;28;20413;-56
2022/11/27 02:07:46;;;;;;;20.67;9.48;;;9.30;57.40;;;;;;5040918;28;20060;-55
2022/11/27 02:10:15;;;;;;;24.75;10.93;;;9.30;57.50;;;;;;5036597;28;20065;-55
2022/11/27 02:12:52;;;;;;;19.02;9.40;;;9.30;57.40;;;;;;5030666;28;20515;-55
2022/11/27 02:15:26;;;;;;;17.98;9.57;;;9.30;57.40;;;;;;5040315;28;20060;-54
2022/11/27 02:17:58;;;;;;;;;;;9.30;57.40;;;;;;5044577;28;20049;-54
2022/11/27 02:20:35;;;;;;;23.88;11.40;;;9.30;57.40;;;;;;5018701;28;19930;-57
2022/11/27 02:23:29;;;;;;;19.55;10.23;;;9.30;57.20;;;;;;5014632;28;20788;-55
2022/11/27 02:26:12;;;;;;;22.67;9.73;;;9.30;57.10;;;;;;5023803;28;20505;-55
2022/11/27 02:28:55;;;;;;;20.13;9.60;;;9.30;57.20;;;;;;5024307;28;20057;-54
2022/11/27 02:31:29;;;;;;;17.50;9.23;;;9.30;57.10;;;;;;5028314;28;20498;-56
2022/11/27 02:34:04;;;;;;;24.25;11.25;;;9.30;57.10;;;;;;5033863;28;20489;-55
2022/11/27 02:36:33;;;;;;;23.17;10.50;;;9.30;57.10;;;;;;5037296;28;20065;-56
2022/11/27 02:39:05;;;;;;;24.05;10.48;;;9.30;57.10;;;;;;5022572;28;20099;-53
2022/11/27 02:41:38;;;;;;;19.55;9.60;;;9.30;57.10;;;;;;5015923;28;20061;-56
2022/11/27 02:44:09;;;;;;;21.55;10.85;;;9.30;57.00;;;;;;5031066;28;20064;-57
2022/11/27 02:46:37;;;;;;;21.73;10.23;;;9.30;57.00;;;;;;5023303;28;20050;-55
2022/11/27 02:49:09;;;;;;;21.75;10.65;;;9.30;56.90;;;;;;5032377;28;20064;-54
2022/11/27 02:51:40;;;;;;;18.00;9.68;;;9.30;56.80;;;;;;5020928;28;20432;-57
2022/11/27 02:54:11;;;;;;;18.67;9.55;;;9.20;56.80;;;;;;5026689;28;20052;-49
2022/11/27 02:56:39;;;;;;;21.42;10.45;;;9.20;56.80;;;;;;5041689;28;20053;-56
2022/11/27 02:59:12;;;;;;;25.42;10.27;;;9.20;56.80;;;;;;5023224;28;20053;-55
2022/11/27 03:01:44;;;;;;;18.55;9.98;;;9.20;56.80;;;;;;5020894;28;20056;-56
2022/11/27 03:04:16;;;;;;;18.73;9.27;;;9.20;56.80;;;;;;5035816;28;20116;-56
2022/11/27 03:06:47;;;;;;;19.77;9.30;;;9.20;56.90;;;;;;5024781;28;20080;-55
2022/11/27 03:09:18;;;;;;;15.73;9.10;;;9.20;56.90;;;;;;5030803;28;20524;-55
2022/11/27 03:11:49;;;;;;;22.17;10.07;;;9.10;56.90;;;;;;5025449;28;20049;-46
2022/11/27 03:14:19;;;;;;;20.00;9.63;;;9.10;56.90;;;;;;5041348;28;20774;-46
2022/11/27 03:16:58;;;;;;;18.63;9.27;;;9.10;56.80;;;;;;5029462;28;20056;-51
2022/11/27 03:19:30;;;;;;;17.45;9.48;;;9.10;56.80;;;;;;5031380;28;20049;-45
2022/11/27 03:21:59;;;;;;;24.33;9.15;;;9.10;56.80;;;;;;5027782;28;20057;-48
2022/11/27 03:24:28;;;;;;;20.50;9.57;;;9.10;56.70;;;;;;5028768;28;20053;-46
2022/11/27 03:26:56;;;;;;;20.45;9.13;;;9.10;56.70;;;;;;5029823;28;20060;-45
2022/11/27 03:29:30;;;;;;;20.15;9.55;;;9.10;56.70;;;;;;5030955;28;20052;-48
2022/11/27 03:31:57;;;;;;;17.33;8.40;;;9.10;56.60;;;;;;5027210;28;20172;-48
2022/11/27 03:34:26;;;;;;;16.77;7.20;;;9.00;56.60;;;;;;5025188;28;20056;-47
2022/11/27 03:36:53;;;;;;;19.85;9.07;;;9.10;56.60;;;;;;5033121;28;20519;-46
2022/11/27 03:39:21;;;;;;;17.67;8.45;;;9.00;56.60;;;;;;5026056;28;20493;-56
2022/11/27 03:41:54;;;;;;;17.88;8.63;;;9.00;56.70;;;;;;5020526;28;20053;-56
2022/11/27 03:44:30;;;;;;;16.50;8.20;;;9.00;56.70;;;;;;5041262;28;20057;-55
2022/11/27 03:47:06;;;;;;;14.32;6.97;;;9.00;56.70;;;;;;5021820;28;20415;-56
2022/11/27 03:49:51;;;;;;;15.32;7.72;;;8.90;56.60;;;;;;5033112;28;20505;-57
2022/11/27 03:52:31;;;;;;;16.30;7.50;;;8.90;56.70;;;;;;5021453;28;20124;-55
2022/11/27 03:55:04;;;;;;;13.25;6.85;;;8.90;56.60;;;;;;5036826;28;20053;-48
2022/11/27 03:57:35;;;;;;;20.55;7.50;;;8.90;56.60;;;;;;5030743;28;20056;-53
2022/11/27 04:00:07;;;;;;;15.38;6.95;;;8.90;56.60;;;;;;5042739;28;20064;-50
2022/11/27 04:02:41;;;;;;;11.20;6.40;;;8.90;56.70;;;;;;5023586;28;20053;-52
2022/11/27 04:05:09;;;;;;;13.40;6.17;;;8.90;56.70;;;;;;5032732;28;20053;-55
2022/11/27 04:07:36;;;;;;;11.95;6.38;;;8.90;56.80;;;;;;5029052;28;20049;-55
2022/11/27 04:10:05;;;;;;;13.45;5.78;;;8.80;56.80;;;;;;5025689;28;20053;-55
2022/11/27 04:12:32;;;;;;;11.90;6.32;;;8.80;56.80;;;;;;5031457;28;20060;-50
2022/11/27 04:14:59;;;;;;;11.88;5.72;;;8.80;56.80;;;;;;5043025;28;20060;-53
2022/11/27 04:17:28;;;;;;;15.90;7.18;;;8.80;56.80;;;;;;5023405;28;20420;-54
2022/11/27 04:19:55;;;;;;;9.60;6.20;;;8.80;56.80;;;;;;5019988;28;20056;-55
2022/11/27 04:22:23;;;;;;;13.35;6.00;;;8.80;56.90;;;;;;5034663;28;20412;-54
2022/11/27 04:24:50;;;;;;;12.93;6.30;;;8.80;56.90;;;;;;5020121;28;20054;-56
2022/11/27 04:27:17;;;;;;;22.25;6.40;;;8.80;56.90;;;;;;5031497;28;20116;-54
2022/11/27 04:29:44;;;;;;;11.75;5.05;;;8.80;56.90;;;;;;5040223;28;20060;-56
2022/11/27 04:32:12;;;;;;;9.30;5.50;;;8.80;56.90;;;;;;5028457;28;20068;-56
2022/11/27 04:34:40;;;;;;;13.30;5.20;;;8.80;56.90;;;;;;5013179;28;20057;-55
2022/11/27 04:37:08;;;;;;;15.65;5.70;;;8.80;56.90;;;;;;5012019;28;20466;-54
2022/11/27 04:39:35;;;;;;;16.88;5.53;;;8.80;56.90;;;;;;5035403;28;20524;-56
2022/11/27 04:42:02;;;;;;;12.23;5.75;;;8.80;56.90;;;;;;5018735;28;20050;-56
2022/11/27 04:44:29;;;;;;;16.02;5.63;;;8.80;57.00;;;;;;5037949;28;20060;-55
2022/11/27 04:46:57;;;;;;;14.63;6.60;;;8.80;57.00;;;;;;5020471;28;20409;-55
2022/11/27 04:49:24;;;;;;;13.85;6.30;;;8.80;57.10;;;;;;5039660;28;20057;-56
2022/11/27 04:51:52;;;;;;;14.05;6.38;;;8.80;57.20;;;;;;5023780;28;20543;-55
2022/11/27 04:54:20;;;;;;;17.75;6.95;;;8.80;57.20;;;;;;5028281;28;20057;-49
2022/11/27 04:56:47;;;;;;;10.52;5.45;;;8.80;57.30;;;;;;5021967;28;20405;-54
2022/11/27 04:59:14;;;;;;;10.48;6.22;;;8.80;57.30;;;;;;5025249;28;20053;-53
2022/11/27 05:01:41;;;;;;;16.33;7.28;;;8.80;57.40;;;;;;5031730;28;20416;-54
2022/11/27 05:04:09;;;;;;;15.93;6.70;;;8.80;57.40;;;;;;5042776;28;20053;-55
2022/11/27 05:06:36;;;;;;;13.13;5.90;;;8.80;57.40;;;;;;5034417;28;20049;-53
2022/11/27 05:09:05;;;;;;;16.95;6.30;;;8.80;57.60;;;;;;5027749;28;20413;-55
2022/11/27 05:11:32;;;;;;;16.58;5.88;;;8.80;57.70;;;;;;5036224;28;20056;-54
2022/11/27 05:14:15;;;;;;;13.80;6.43;;;8.80;57.70;;;;;;5041477;28;20057;-52
2022/11/27 05:16:44;;;;;;;10.07;5.53;;;8.80;57.70;;;;;;5018049;28;20061;-55
2022/11/27 05:19:12;;;;;;;8.65;5.10;;;8.80;57.60;;;;;;5024806;28;20053;-56
2022/11/27 05:21:41;;;;;;;10.18;5.45;;;8.80;57.60;;;;;;5020651;28;20497;-55
2022/11/27 05:24:10;;;;;;;11.70;5.80;;;8.80;57.70;;;;;;5022459;28;20072;-54
2022/11/27 05:26:38;;;;;;;13.50;6.15;;;8.80;57.70;;;;;;5026586;28;20496;-55
2022/11/27 05:29:06;;;;;;;20.17;6.70;;;8.80;57.70;;;;;;5017782;28;20049;-55
2022/11/27 05:31:34;;;;;;;14.90;6.60;;;8.90;57.80;;;;;;5027707;28;20057;-56
2022/11/27 05:34:01;;;;;;;15.70;6.90;;;8.90;57.80;;;;;;5018478;28;20057;-51
2022/11/27 05:36:29;;;;;;;12.20;6.15;;;8.80;57.80;;;;;;5029807;28;20497;-54
2022/11/27 05:38:57;;;;;;;13.50;6.70;;;8.90;57.90;;;;;;5041524;28;20060;-55
2022/11/27 05:41:25;;;;;;;14.57;6.25;;;8.90;57.90;;;;;;5024452;28;20536;-56
2022/11/27 05:43:53;;;;;;;22.20;10.00;;;8.90;57.90;;;;;;5020860;28;20076;-55
2022/11/27 05:46:22;;;;;;;24.50;10.93;;;8.90;58.00;;;;;;5018168;28;20068;-55
2022/11/27 05:48:50;;;;;;;13.63;6.85;;;8.90;58.10;;;;;;5023196;28;20065;-48
2022/11/27 05:51:18;;;;;;;13.82;5.68;;;8.90;58.60;;;;;;5020966;28;20501;-54
2022/11/27 05:53:46;;;;;;;14.20;5.82;;;8.90;58.20;;;;;;5034372;28;20049;-55
2022/11/27 05:56:16;;;;;;;16.42;6.43;;;8.90;58.10;;;;;;5020730;28;20057;-55
2022/11/27 05:58:46;;;;;;;12.95;6.30;;;8.90;58.20;;;;;;5027097;28;20053;-56
2022/11/27 06:01:15;;;;;;;15.07;6.65;;;9.00;58.20;;;;;;5019258;28;20049;-55
2022/11/27 06:03:42;;;;;;;20.50;7.10;;;9.00;58.20;;;;;;5030971;28;20084;-55
2022/11/27 06:06:11;;;;;;;16.50;6.28;;;9.00;58.30;;;;;;5032520;28;20061;-55
2022/11/27 06:08:39;;;;;;;13.57;6.32;;;9.00;58.40;;;;;;5021605;28;20053;-51
2022/11/27 06:11:08;;;;;;;15.43;6.35;;;9.00;58.40;;;;;;5023431;28;20049;-52
2022/11/27 06:13:36;;;;;;;32.85;13.00;;;9.00;58.40;;;;;;5018721;28;20049;-54
2022/11/27 06:16:07;;;;;;;23.63;9.35;;;9.00;58.40;;;;;;5027796;28;20053;-53
2022/11/27 06:18:34;;;;;;;16.55;7.43;;;9.00;58.40;;;;;;5018586;28;20058;-55
2022/11/27 06:21:06;;;;;;;15.77;7.03;;;9.00;58.50;;;;;;5022130;28;20058;-56
2022/11/27 06:23:33;;;;;;;12.98;6.43;;;9.10;58.60;;;;;;5034519;28;20060;-51
2022/11/27 06:26:12;;;;;;;21.58;7.22;;;9.00;58.50;;;;;;5025487;28;20068;-53
2022/11/27 06:28:40;;;;;;;13.80;6.25;;;9.10;58.50;;;;;;5045507;28;20492;-55
2022/11/27 06:31:11;;;;;;;13.32;6.53;;;9.10;58.50;;;;;;5026776;28;20045;-55
2022/11/27 06:33:38;;;;;;;16.35;6.45;;;9.10;58.40;;;;;;5033127;28;20417;-55
2022/11/27 06:36:06;;;;;;;12.75;6.35;;;9.10;58.40;;;;;;5028047;28;20073;-52
2022/11/27 06:38:35;;;;;;;15.57;6.70;;;9.10;58.40;;;;;;5043779;28;20044;-56
2022/11/27 06:41:04;;;;;;;13.00;6.25;;;9.10;58.40;;;;;;5031237;28;20057;-55
2022/11/27 06:43:31;;;;;;;11.07;5.90;;;9.10;58.40;;;;;;5034247;28;20057;-54
2022/11/27 06:45:59;;;;;;;14.02;5.78;;;9.10;58.40;;;;;;5034793;28;20057;-52
2022/11/27 06:48:29;;;;;;;15.25;6.50;;;9.20;58.50;;;;;;5024218;28;20057;-53
2022/11/27 06:50:59;;;;;;;14.13;6.10;;;9.20;58.50;;;;;;5037192;28;20049;-54
2022/11/27 06:53:26;;;;;;;13.70;5.57;;;9.20;58.40;;;;;;5027786;28;20045;-55
2022/11/27 06:55:53;;;;;;;15.07;6.05;;;9.20;58.40;;;;;;5030588;28;20057;-55
2022/11/27 06:58:21;;;;;;;16.10;7.03;;;9.20;58.40;;;;;;5027608;28;20528;-55
2022/11/27 07:00:48;;;;;;;13.80;6.13;;;9.20;58.40;;;;;;5027746;28;20060;-54
2022/11/27 07:03:15;;;;;;;13.27;5.85;;;9.20;58.40;;;;;;5021618;28;20478;-56
2022/11/27 07:05:44;;;;;;;12.63;5.82;;;9.20;58.40;;;;;;5041711;28;20072;-57
2022/11/27 07:08:11;;;;;;;12.70;6.60;;;9.20;58.40;;;;;;5027337;28;20068;-56
2022/11/27 07:10:38;;;;;;;16.13;6.35;;;9.30;58.40;;;;;;5016755;28;20535;-53
2022/11/27 07:13:06;;;;;;;18.02;7.38;;;9.30;58.40;;;;;;5019819;28;20053;-52
2022/11/27 07:15:33;;;;;;;12.30;6.03;;;9.30;58.40;;;;;;5030587;28;20065;-53
2022/11/27 07:18:00;;;;;;;13.93;6.32;;;9.30;58.40;;;;;;5030415;28;20052;-54
2022/11/27 07:20:28;;;;;;;16.10;6.53;;;9.30;58.40;;;;;;5017987;28;20053;-55
2022/11/27 07:22:57;;;;;;;17.75;6.82;;;9.30;58.40;;;;;;5023982;28;20061;-56
2022/11/27 07:25:24;;;;;;;18.00;7.68;;;9.30;58.40;;;;;;5019315;28;20057;-48
2022/11/27 07:27:51;;;;;;;12.75;6.38;;;9.30;58.50;;;;;;5005784;28;20060;-50
2022/11/27 07:30:18;;;;;;;11.45;6.47;;;9.30;58.50;;;;;;5022014;28;20398;-56
2022/11/27 07:32:46;;;;;;;23.45;7.32;;;9.40;58.50;;;;;;5025558;28;20065;-48
2022/11/27 07:35:13;;;;;;;16.67;7.18;;;9.40;58.50;;;;;;5027534;28;20057;-48
2022/11/27 07:37:40;;;;;;;18.90;7.40;;;9.40;58.50;;;;;;5029714;28;20053;-53
2022/11/27 07:40:09;;;;;;;10.95;6.38;;;9.40;58.40;;;;;;5020592;28;20050;-52
2022/11/27 07:42:37;;;;;;;12.38;6.13;;;9.40;58.40;;;;;;5019932;28;20437;-56
2022/11/27 07:45:05;;;;;;;14.25;6.65;;;9.50;58.50;;;;;;5030352;28;20061;-57
2022/11/27 07:47:32;;;;;;;15.20;6.95;;;9.40;58.40;;;;;;5027608;28;20056;-56
2022/11/27 07:50:00;;;;;;;14.32;6.70;;;9.50;58.50;;;;;;5024510;28;20045;-56
2022/11/27 07:52:27;;;;;;;18.63;7.65;;;9.50;58.50;;;;;;5028774;28;20048;-56
2022/11/27 07:54:54;;;;;;;17.17;7.47;;;9.50;58.50;;;;;;5031541;28;20041;-56
2022/11/27 07:57:26;;;;;;;19.95;8.10;;;9.50;58.40;;;;;;5036069;28;21560;-57
2022/11/27 07:59:54;;;;;;;17.48;7.28;;;9.50;58.40;;;;;;5041020;28;20064;-55
2022/11/27 08:02:21;;;;;;;13.35;7.05;;;9.50;58.30;;;;;;5021918;28;20049;-57
2022/11/27 08:04:48;;;;;;;20.35;8.10;;;9.60;58.40;;;;;;5028049;28;20053;-57
2022/11/27 08:07:18;;;;;;;43.13;18.08;;;9.60;58.40;;;;;;5028398;28;20056;-57
2022/11/27 08:09:45;;;;;;;22.33;9.60;;;9.60;58.40;;;;;;5024491;28;20052;-55
2022/11/27 08:12:13;;;;;;;14.48;7.82;;;9.60;58.40;;;;;;5029992;28;20084;-56
2022/11/27 08:14:41;;;;;;;19.35;7.93;;;9.60;58.40;;;;;;5023319;28;20516;-57
2022/11/27 08:17:12;;;;;;;18.98;8.57;;;9.60;58.30;;;;;;5021585;28;20064;-56
2022/11/27 08:19:39;;;;;;;16.38;7.53;;;9.70;58.40;;;;;;5023148;28;20057;-53
2022/11/27 08:22:11;;;;;;;18.58;7.47;;;9.70;58.40;;;;;;5025489;28;20049;-55
2022/11/27 08:24:41;;;;;;;16.05;7.97;;;9.70;58.30;;;;;;5024532;28;20073;-57
2022/11/27 08:27:08;;;;;;;19.30;8.45;;;9.70;58.30;;;;;;5023009;28;20060;-57
2022/11/27 08:29:36;;;;;;;15.00;7.72;;;9.70;58.30;;;;;;5037932;28;20412;-57
2022/11/27 08:32:05;;;;;;;19.35;8.18;;;9.80;58.30;;;;;;5021351;28;20064;-56
2022/11/27 08:34:33;;;;;;;17.92;8.57;;;9.80;58.30;;;;;;5024660;28;20806;-57
2022/11/27 08:37:00;;;;;;;16.73;7.40;;;9.80;58.20;;;;;;5033248;28;20061;-55
2022/11/27 08:39:27;;;;;;;14.40;7.55;;;9.80;58.20;;;;;;5038337;28;20060;-56
2022/11/27 08:41:54;;;;;;;13.35;7.13;;;9.90;58.20;;;;;;5038720;28;20080;-56
2022/11/27 08:44:22;;;;;;;19.95;9.48;;;9.90;58.20;;;;;;5040326;28;20128;-56
2022/11/27 08:46:49;;;;;;;17.20;8.77;;;9.90;58.20;;;;;;5024088;28;20057;-55
2022/11/27 08:49:17;;;;;;;14.63;8.40;;;9.90;58.20;;;;;;5039481;28;20402;-56
2022/11/27 08:51:45;;;;;;;23.25;9.25;;;10.00;58.10;;;;;;5035773;28;20128;-55
2022/11/27 08:54:12;;;;;;;14.77;8.02;;;10.00;58.00;;;;;;5027723;28;20433;-55
2022/11/27 08:56:39;;;;;;;16.70;8.88;;;10.00;57.90;;;;;;5043461;28;20053;-53
2022/11/27 08:59:06;;;;;;;15.50;7.90;;;10.00;57.90;;;;;;5043320;28;20056;-56
2022/11/27 09:01:34;;;;;;;17.48;8.77;;;10.10;57.90;;;;;;5020917;28;20532;-55
2022/11/27 09:04:04;;;;;;;16.58;8.43;;;10.10;57.80;;;;;;5041212;28;20060;-56
2022/11/27 09:06:35;;;;;;;19.02;8.75;;;10.10;57.80;;;;;;5040591;28;20057;-55
2022/11/27 09:09:05;;;;;;;16.42;7.72;;;10.10;57.70;;;;;;5040853;28;20053;-56
2022/11/27 09:11:34;;;;;;;16.80;7.93;;;10.10;57.70;;;;;;5030285;28;20054;-54
2022/11/27 09:14:03;;;;;;;20.33;8.07;;;10.10;57.70;;;;;;5022162;28;20073;-56
2022/11/27 09:16:31;;;;;;;15.02;7.63;;;10.20;57.70;;;;;;5029750;28;20263;-56
2022/11/27 09:18:58;;;;;;;19.30;7.95;;;10.20;57.60;;;;;;5042088;28;20049;-57
2022/11/27 09:21:29;;;;;;;18.90;7.90;;;10.20;57.50;;;;;;5023067;28;20409;-56
2022/11/27 09:23:59;;;;;;;18.45;7.95;;;10.20;57.40;;;;;;5032900;28;20067;-56
2022/11/27 09:26:27;;;;;;;15.43;8.00;;;10.30;57.50;;;;;;5038606;28;20067;-55
2022/11/27 09:28:57;;;;;;;20.23;8.10;;;10.30;57.50;;;;;;5043020;28;20056;-56
2022/11/27 09:31:24;;;;;;;17.67;9.00;;;10.30;57.50;;;;;;5030994;28;20516;-57
2022/11/27 09:33:51;;;;;;;15.35;7.78;;;10.30;57.40;;;;;;5032062;28;20371;-56
2022/11/27 09:36:22;;;;;;;13.27;7.40;;;10.40;57.40;;;;;;5041101;28;20068;-57
2022/11/27 09:38:49;;;;;;;16.75;7.55;;;10.40;57.40;;;;;;5041326;28;20049;-57
2022/11/27 09:41:39;;;;;;;12.25;6.43;;;10.40;57.30;;;;;;5037004;28;20049;-56
2022/11/27 09:44:23;;;;;;;12.98;6.15;;;10.40;57.20;;;;;;5040694;28;20060;-57
2022/11/27 09:46:51;;;;;;;15.85;6.85;;;10.50;57.20;;;;;;5024389;28;20049;-57
2022/11/27 09:49:24;;;;;;;14.00;7.07;;;10.50;57.20;;;;;;5039764;28;20056;-56
2022/11/27 09:51:56;;;;;;;14.70;8.03;;;10.60;57.20;;;;;;5026815;28;20064;-55
2022/11/27 09:54:27;;;;;;;12.80;6.65;;;10.60;57.20;;;;;;5033132;28;20489;-56
2022/11/27 09:56:56;;;;;;;13.88;6.85;;;10.60;57.20;;;;;;5036386;28;20053;-56
2022/11/27 09:59:30;;;;;;;14.88;6.30;;;10.60;57.10;;;;;;5022768;28;20056;-52
2022/11/27 10:01:58;;;;;;;14.85;6.88;;;10.70;57.10;;;;;;5024058;28;20061;-55
2022/11/27 10:04:25;;;;;;;13.45;6.35;;;10.70;56.90;;;;;;5034387;28;20056;-57
2022/11/27 10:07:13;;;;;;;12.57;6.63;;;10.70;57.30;;;;;;5041139;28;20413;-54
2022/11/27 10:09:51;;;;;;;12.30;6.00;;;10.70;56.70;;;;;;5036994;28;20511;-56
2022/11/27 10:12:30;;;;;;;15.05;6.07;;;10.70;56.60;;;;;;5031937;28;20526;-55
2022/11/27 10:15:05;;;;;;;15.18;6.25;;;10.80;56.60;;;;;;5029788;28;20064;-57
2022/11/27 10:17:38;;;;;;;11.63;5.47;;;10.80;56.50;;;;;;5035360;28;20060;-50
2022/11/27 10:20:15;;;;;;;11.15;5.85;;;10.80;56.40;;;;;;5043179;28;20072;-56
2022/11/27 10:22:50;;;;;;;14.82;5.97;;;10.90;56.40;;;;;;5044728;28;20059;-55
2022/11/27 10:25:20;;;;;;;13.63;6.95;;;10.90;56.30;;;;;;5039503;28;20054;-57
2022/11/27 10:28:02;;;;;;;16.02;7.15;;;10.90;56.20;;;;;;5039802;28;20064;-56
2022/11/27 10:30:32;;;;;;;11.15;6.05;;;10.90;56.20;;;;;;5028617;28;20061;-56
2022/11/27 10:33:01;;;;;;;10.25;5.28;;;11.00;56.30;;;;;;5025418;28;20050;-55
2022/11/27 10:35:32;;;;;;;18.05;5.78;;;11.00;56.30;;;;;;5028171;28;20057;-54
2022/11/27 10:38:03;;;;;;;12.05;5.72;;;11.00;56.30;;;;;;5042543;28;20052;-56
2022/11/27 10:40:34;;;;;;;8.82;5.18;;;11.00;56.10;;;;;;5041193;28;20049;-55
2022/11/27 10:43:10;;;;;;;11.60;5.70;;;11.10;56.10;;;;;;5045746;28;20084;-56
2022/11/27 10:45:43;;;;;;;16.60;7.95;;;11.10;56.10;;;;;;5035162;28;20065;-52
2022/11/27 10:48:12;;;;;;;11.93;6.20;;;11.10;55.90;;;;;;5034403;28;20437;-52
2022/11/27 10:50:40;;;;;;;9.90;5.13;;;11.10;55.80;;;;;;5040320;28;20053;-56
2022/11/27 10:53:10;;;;;;;11.48;5.40;;;11.20;55.70;;;;;;5031630;28;20492;-51
2022/11/27 10:55:53;;;;;;;11.05;4.68;;;11.20;55.70;;;;;;5042318;28;20068;-57
2022/11/27 10:58:26;;;;;;;12.27;5.38;;;11.20;55.70;;;;;;5038605;28;20049;-53
2022/11/27 11:01:01;;;;;;;10.75;5.10;;;11.20;55.60;;;;;;5035091;28;20507;-55
2022/11/27 11:03:29;;;;;;;10.75;4.65;;;11.20;55.60;;;;;;5045877;28;20068;-56
2022/11/27 11:05:59;;;;;;;12.25;5.68;;;11.30;55.70;;;;;;5036282;28;20429;-56
2022/11/27 11:08:28;;;;;;;11.25;4.70;;;11.30;55.70;;;;;;5039272;28;20056;-52
2022/11/27 11:10:59;;;;;;;9.82;5.18;;;11.40;55.70;;;;;;5037001;28;20041;-56
2022/11/27 11:13:29;;;;;;;13.23;5.28;;;11.30;55.60;;;;;;5033273;28;20061;-53
2022/11/27 11:15:59;;;;;;;9.48;5.03;;;11.40;55.50;;;;;;5035505;28;20053;-56
2022/11/27 11:18:29;;;;;;;7.95;4.60;;;11.40;55.50;;;;;;5045076;28;20065;-55
2022/11/27 11:20:58;;;;;;;12.20;5.30;;;11.40;55.50;;;;;;5025138;28;20421;-54
2022/11/27 11:23:32;;;;;;;7.63;4.13;;;11.40;55.40;;;;;;5020100;28;20129;-56
2022/11/27 11:26:04;;;;;;;10.60;4.80;;;11.40;55.30;;;;;;5025380;28;20076;-56
2022/11/27 11:28:40;;;;;;;14.25;4.35;;;11.50;55.20;;;;;;5034874;28;20057;-55
2022/11/27 11:31:10;;;;;;;11.85;4.60;;;11.50;55.10;;;;;;5024544;28;20541;-53
2022/11/27 11:33:47;;;;;;;11.73;4.80;;;11.50;55.10;;;;;;5017430;28;20792;-52
2022/11/27 11:36:15;;;;;;;11.45;4.30;;;11.50;54.90;;;;;;5037601;28;20053;-54
2022/11/27 11:38:45;;;;;;;12.38;4.55;;;11.50;54.90;;;;;;5032437;28;20104;-56
2022/11/27 11:41:12;;;;;;;8.68;4.22;;;11.50;54.80;;;;;;5035673;28;20484;-56
2022/11/27 11:43:42;;;;;;;26.25;9.00;;;11.50;54.80;;;;;;5023551;28;20057;-56
2022/11/27 11:46:21;;;;;;;18.05;8.48;;;11.60;54.90;;;;;;5027289;28;20049;-56
2022/11/27 11:49:02;;;;;;;9.55;5.25;;;11.60;54.70;;;;;;5031510;28;20053;-54
2022/11/27 11:51:54;;;;;;;7.63;3.75;;;11.60;54.60;;;;;;5030946;28;20053;-56
2022/11/27 11:54:42;;;;;;;8.15;4.15;;;11.70;54.60;;;;;;5032277;28;20049;-57
2022/11/27 11:57:33;;;;;;;8.32;3.78;;;11.70;54.40;;;;;;5028222;28;20060;-56
2022/11/27 12:00:06;;;;;;;9.00;4.22;;;11.70;54.40;;;;;;5026282;28;20052;-56
2022/11/27 12:02:50;;;;;;;6.43;3.60;;;11.70;54.40;;;;;;5028088;28;20059;-55
2022/11/27 12:05:31;;;;;;;7.88;3.80;;;11.70;54.30;;;;;;5029881;28;20053;-53
2022/11/27 12:08:19;;;;;;;7.18;3.63;;;11.80;54.30;;;;;;5023622;28;20079;-55
2022/11/27 12:10:55;;;;;;;7.30;3.40;;;11.80;54.20;;;;;;5009376;28;20072;-54
2022/11/27 12:13:35;;;;;;;8.68;4.13;;;11.80;54.10;;;;;;5021573;28;20501;-51
2022/11/27 12:16:14;;;;;;;7.38;3.63;;;11.80;54.10;;;;;;5039976;28;20076;-56
2022/11/27 12:18:51;;;;;;;6.68;3.45;;;11.80;54.00;;;;;;5022507;28;20409;-50
2022/11/27 12:21:23;;;;;;;6.57;2.97;;;11.90;54.50;;;;;;5032224;28;20044;-53
2022/11/27 12:24:05;;;;;;;8.60;3.50;;;11.90;53.90;;;;;;5027502;28;20048;-55
2022/11/27 12:26:45;;;;;;;10.68;3.40;;;11.90;53.70;;;;;;5010854;28;20053;-55
2022/11/27 12:29:35;;;;;;;7.82;3.40;;;11.90;53.70;;;;;;5029681;28;20931;-56
2022/11/27 12:32:23;;;;;;;7.03;3.15;;;11.90;53.50;;;;;;5032852;28;20049;-56
2022/11/27 12:35:03;;;;;;;8.25;3.78;;;11.90;53.50;;;;;;5029423;28;20068;-56
2022/11/27 12:37:43;;;;;;;8.15;3.40;;;11.90;53.40;;;;;;5042174;28;20068;-55
2022/11/27 12:40:27;;;;;;;10.15;4.15;;;11.90;53.00;;;;;;5029461;28;20056;-56
2022/11/27 12:43:04;;;;;;;8.25;3.60;;;11.90;53.10;;;;;;5041563;28;20049;-56
2022/11/27 12:45:38;;;;;;;6.18;3.05;;;11.90;53.20;;;;;;5039362;28;20056;-56
2022/11/27 12:48:14;;;;;;;8.60;3.47;;;11.90;53.30;;;;;;5030031;28;20060;-54
2022/11/27 12:50:45;;;;;;;5.95;2.75;;;11.90;53.20;;;;;;5039675;28;20413;-56
2022/11/27 12:53:20;;;;;;;10.05;3.40;;;11.90;53.30;;;;;;5028233;28;20662;-56
2022/11/27 12:56:03;;;;;;;5.50;3.00;;;11.90;53.20;;;;;;5029948;28;20641;-55
2022/11/27 12:58:35;;;;;;;8.27;3.00;;;11.90;53.60;;;;;;5036382;28;20054;-56
2022/11/27 13:01:07;;;;;;;10.30;3.85;;;11.90;53.00;;;;;;5020914;28;20056;-51
2022/11/27 13:03:43;;;;;;;7.55;3.38;;;11.90;52.90;;;;;;5036844;28;20060;-55